Diamondhead, Mississippi
Current Conditions -  °F | °C
As of 2:53 AM on Friday 24 Oct 2014 (Local Time) from KGPT Reporting Station
Clear Clear  
Wind Chill: 55°   Ceiling: Unl
Heat Index: 55°   Visibility: 10mi
Dew Point: 46°   Wind: 6mph
Humidity: 72%   Direction: 360°N
Pressure: 30.06"   Gusts: NA
Location:  30.38°N, 89.37°W
Report Text: KGPT 240753Z AUTO 36005KT 10SM CLR 13/08 A3006 RMK AO2 SLP178 T01280078
Loading
Personal Weather Stations






























Interactive Weather Map
Tropical Storm Tracking
New forecast layout! Learn more

10-Day Weather Forecast

Advertisements
Track Severe Weather on mobile